createdAt,value
2017-11-22T00:01:20.432Z,65.98
2017-11-22T00:03:46.865Z,65.56
2017-11-22T00:06:13.299Z,65.36
2017-11-22T00:08:39.735Z,65.42
2017-11-22T00:11:06.170Z,65.13
2017-11-22T00:13:32.611Z,65.05
2017-11-22T00:15:59.037Z,65.76
2017-11-22T00:18:26.198Z,66.38
2017-11-22T00:20:52.634Z,66.12
2017-11-22T00:23:19.063Z,65.96
2017-11-22T00:25:45.496Z,65.57
2017-11-22T00:28:11.825Z,65.15
2017-11-22T00:30:38.261Z,65.71
2017-11-22T00:33:04.702Z,65.78
2017-11-22T00:35:31.848Z,65.82
2017-11-22T00:37:58.396Z,66.13
2017-11-22T00:40:24.817Z,66.08
2017-11-22T00:42:51.262Z,65.96
2017-11-22T00:45:17.686Z,65.85
2017-11-22T00:47:44.123Z,66.22
2017-11-22T00:50:10.556Z,66.32
2017-11-22T00:52:37.788Z,66.28
2017-11-22T00:55:04.238Z,66.69
2017-11-22T00:57:30.679Z,66.82
2017-11-22T00:59:57.184Z,67.83
2017-11-22T01:02:23.651Z,68.35
2017-11-22T01:04:50.078Z,68.01
2017-11-22T01:07:16.630Z,67.40
2017-11-22T01:09:43.671Z,67.79
2017-11-22T01:12:10.109Z,67.95
2017-11-22T01:14:36.549Z,67.48
2017-11-22T01:17:02.996Z,67.15
2017-11-22T01:19:29.410Z,66.78
2017-11-22T01:21:55.844Z,66.40
2017-11-22T01:24:22.359Z,66.02
2017-11-22T01:26:49.443Z,65.76
2017-11-22T01:29:15.874Z,65.60
2017-11-22T01:31:42.299Z,65.79
2017-11-22T01:34:08.736Z,65.56
2017-11-22T01:36:35.177Z,65.36
2017-11-22T01:39:01.604Z,65.54
2017-11-22T01:41:28.038Z,66.21
2017-11-22T01:43:55.173Z,66.16
2017-11-22T01:46:21.615Z,66.43
2017-11-22T01:48:48.067Z,66.03
2017-11-22T01:51:14.474Z,66.11
2017-11-22T01:53:41.199Z,66.35
2017-11-22T01:56:07.669Z,66.17
2017-11-22T01:58:34.110Z,65.86
2017-11-22T02:01:01.266Z,66.13
2017-11-22T02:03:27.690Z,66.53
2017-11-22T02:05:54.133Z,66.77
2017-11-22T02:08:20.567Z,67.77
2017-11-22T02:10:46.994Z,67.94
2017-11-22T02:13:13.429Z,67.31
2017-11-22T02:15:39.863Z,67.19
2017-11-22T02:18:07.024Z,67.63
2017-11-22T02:20:33.459Z,67.54
2017-11-22T02:22:59.897Z,67.47
2017-11-22T02:25:26.327Z,67.35
2017-11-22T02:27:52.754Z,67.33
2017-11-22T02:30:19.128Z,67.57
2017-11-22T02:32:45.520Z,67.68
2017-11-22T02:35:12.671Z,68.15
2017-11-22T02:37:39.114Z,68.66
2017-11-22T02:40:05.541Z,69.22
2017-11-22T02:42:31.978Z,70.25
2017-11-22T02:44:58.411Z,69.93
2017-11-22T02:47:24.844Z,69.23
2017-11-22T02:49:51.280Z,68.93
2017-11-22T02:52:18.407Z,69.16
2017-11-22T02:54:44.875Z,69.23
2017-11-22T02:57:11.308Z,69.12
2017-11-22T02:59:37.735Z,68.26
2017-11-22T03:02:04.177Z,68.24
2017-11-22T03:04:30.603Z,68.19
2017-11-22T03:06:57.040Z,68.65
2017-11-22T03:09:24.295Z,68.61
2017-11-22T03:11:50.733Z,68.42
2017-11-22T03:14:17.128Z,68.47
2017-11-22T03:16:43.595Z,68.99
2017-11-22T03:19:10.038Z,69.18
2017-11-22T03:21:36.465Z,69.11
2017-11-22T03:24:03.011Z,69.40
2017-11-22T03:26:30.153Z,69.84
2017-11-22T03:28:56.594Z,69.59
2017-11-22T03:31:23.029Z,69.57
2017-11-22T03:33:49.458Z,69.66
2017-11-22T03:36:15.789Z,69.46
2017-11-22T03:38:42.226Z,69.28
2017-11-22T03:41:08.662Z,69.31
2017-11-22T03:43:35.818Z,69.50
2017-11-22T03:46:02.245Z,69.58
2017-11-22T03:48:28.688Z,69.73
2017-11-22T03:50:55.113Z,69.98
2017-11-22T03:53:21.553Z,70.31
2017-11-22T03:55:47.960Z,70.72
2017-11-22T03:58:14.419Z,70.86
2017-11-22T04:00:41.569Z,70.98
2017-11-22T04:03:08.106Z,71.09
2017-11-22T04:05:34.549Z,70.95
2017-11-22T04:08:00.985Z,70.91
2017-11-22T04:10:27.414Z,70.80
2017-11-22T04:12:53.792Z,70.77
2017-11-22T04:15:20.139Z,70.78
2017-11-22T04:17:47.411Z,70.88
2017-11-22T04:20:13.847Z,71.28
2017-11-22T04:22:40.299Z,71.13
2017-11-22T04:25:06.744Z,70.99
2017-11-22T04:27:33.103Z,70.78
2017-11-22T04:29:59.468Z,71.22
2017-11-22T04:32:25.943Z,71.40
2017-11-22T04:34:53.090Z,71.30
2017-11-22T04:37:19.533Z,71.47
2017-11-22T04:39:45.957Z,71.56
2017-11-22T04:42:12.392Z,71.88
2017-11-22T04:44:38.834Z,72.17
2017-11-22T04:47:05.261Z,72.00
2017-11-22T04:49:31.707Z,71.79
2017-11-22T04:51:58.952Z,71.63
2017-11-22T04:54:25.386Z,71.24
2017-11-22T04:56:51.765Z,71.28
2017-11-22T04:59:18.223Z,71.42
2017-11-22T05:01:44.665Z,71.26
2017-11-22T05:04:11.116Z,70.94
2017-11-22T05:06:37.556Z,71.15
2017-11-22T05:09:04.801Z,71.36
2017-11-22T05:11:31.245Z,71.50
2017-11-22T05:13:57.681Z,71.62
2017-11-22T05:16:24.124Z,71.78
2017-11-22T05:18:50.557Z,71.88
2017-11-22T05:21:16.986Z,71.72
2017-11-22T05:23:43.427Z,71.52
2017-11-22T05:26:10.577Z,71.28
2017-11-22T05:28:37.005Z,71.07
2017-11-22T05:31:03.440Z,70.95
2017-11-22T05:33:29.770Z,71.23
2017-11-22T05:35:56.209Z,71.55
2017-11-22T05:38:22.647Z,71.59
2017-11-22T05:40:49.075Z,71.72
2017-11-22T05:43:16.328Z,71.51
2017-11-22T05:45:42.765Z,71.40
2017-11-22T05:48:09.198Z,71.40
2017-11-22T05:50:35.641Z,71.32
2017-11-22T05:53:02.066Z,71.24
2017-11-22T05:55:28.500Z,71.04
2017-11-22T05:57:54.937Z,71.22
2017-11-22T06:00:22.079Z,70.83
2017-11-22T06:02:48.498Z,71.04
2017-11-22T06:05:14.956Z,71.13
2017-11-22T06:07:41.415Z,70.97
2017-11-22T06:10:07.826Z,70.82
2017-11-22T06:12:34.261Z,70.75
2017-11-22T06:15:00.695Z,70.67
2017-11-22T06:17:27.855Z,70.85
2017-11-22T06:19:54.294Z,70.86
2017-11-22T06:22:20.724Z,70.45
2017-11-22T06:24:47.087Z,70.10
2017-11-22T06:27:13.576Z,69.77
2017-11-22T06:29:40.020Z,70.07
2017-11-22T06:32:06.428Z,70.39
2017-11-22T06:34:33.333Z,70.85
2017-11-22T06:36:59.853Z,70.92
2017-11-22T06:39:26.271Z,70.74
2017-11-22T06:41:53.225Z,70.31
2017-11-22T06:44:19.652Z,70.19
2017-11-22T06:46:46.055Z,70.09
2017-11-22T06:49:12.529Z,69.73
2017-11-22T06:51:38.956Z,69.74
2017-11-22T06:54:05.497Z,69.81
2017-11-22T06:56:32.338Z,69.69
2017-11-22T06:58:58.779Z,69.22
2017-11-22T07:01:25.206Z,69.03
2017-11-22T07:03:52.061Z,68.72
2017-11-22T07:06:18.502Z,68.48
2017-11-22T07:08:44.928Z,68.40
2017-11-22T07:11:11.769Z,68.21
2017-11-22T07:13:38.198Z,68.02
2017-11-22T07:16:04.632Z,67.90
2017-11-22T07:18:31.382Z,67.75
2017-11-22T07:20:57.808Z,67.87
2017-11-22T07:23:24.242Z,67.91
2017-11-22T07:25:51.403Z,68.00
2017-11-22T07:28:17.833Z,68.32
2017-11-22T07:30:44.367Z,68.49
2017-11-22T07:33:11.007Z,68.96
2017-11-22T07:35:37.440Z,69.18
2017-11-22T07:38:03.985Z,68.76
2017-11-22T07:40:30.719Z,68.52
2017-11-22T07:42:57.262Z,68.34
2017-11-22T07:45:23.793Z,68.12
2017-11-22T07:47:50.751Z,68.12
2017-11-22T07:50:17.107Z,68.11
2017-11-22T07:52:43.470Z,68.15
2017-11-22T07:55:10.116Z,68.12
2017-11-22T07:57:36.589Z,67.92
2017-11-22T08:00:03.136Z,67.84
2017-11-22T08:02:29.739Z,68.00
2017-11-22T08:04:56.201Z,68.09
2017-11-22T08:07:22.635Z,68.09
2017-11-22T08:09:49.582Z,67.87
2017-11-22T08:12:16.011Z,67.63
2017-11-22T08:14:42.851Z,67.24
2017-11-22T08:17:09.699Z,67.15
2017-11-22T08:19:36.242Z,67.08
2017-11-22T08:22:02.724Z,67.47
2017-11-22T08:24:29.828Z,66.98
2017-11-22T08:26:56.356Z,66.09
2017-11-22T08:29:22.964Z,65.18
2017-11-22T08:31:50.047Z,64.76
2017-11-22T08:34:16.788Z,63.47
2017-11-22T08:36:43.536Z,62.85
2017-11-22T08:39:10.548Z,62.86
2017-11-22T08:41:37.325Z,61.66
2017-11-22T08:44:03.958Z,61.37
2017-11-22T08:46:30.910Z,62.26
2017-11-22T08:48:57.443Z,60.85
2017-11-22T08:51:23.776Z,61.78
2017-11-22T08:53:50.620Z,60.44
2017-11-22T08:56:17.064Z,60.56
2017-11-22T08:58:43.496Z,59.65
2017-11-22T09:01:10.438Z,59.59
2017-11-22T09:03:36.982Z,58.47
2017-11-22T09:06:03.488Z,58.26
2017-11-22T09:08:30.566Z,58.48
2017-11-22T09:10:57.028Z,58.29
2017-11-22T09:13:23.644Z,58.05
2017-11-22T09:15:50.766Z,58.84
2017-11-22T09:18:17.218Z,58.11
2017-11-22T09:20:43.969Z,58.52
2017-11-22T09:23:10.496Z,58.66
2017-11-22T09:25:37.034Z,59.02
2017-11-22T09:28:03.468Z,58.58
2017-11-22T09:30:29.939Z,58.72
2017-11-22T09:32:56.448Z,58.31
2017-11-22T09:35:22.875Z,58.67
2017-11-22T09:37:49.521Z,58.49
2017-11-22T09:40:16.153Z,58.03
2017-11-22T09:42:42.589Z,57.88
2017-11-22T09:45:09.031Z,57.68
2017-11-22T09:47:35.460Z,57.19
2017-11-22T09:50:02.198Z,57.66
2017-11-22T09:52:28.642Z,58.17
2017-11-22T09:54:55.068Z,57.68
2017-11-22T09:57:21.706Z,58.12
2017-11-22T09:59:48.253Z,58.12
2017-11-22T10:02:14.683Z,57.71
2017-11-22T10:04:41.527Z,58.01
2017-11-22T10:07:08.073Z,57.82
2017-11-22T10:09:34.701Z,57.33
2017-11-22T10:12:01.752Z,57.96
2017-11-22T10:14:28.186Z,57.85
2017-11-22T10:16:54.621Z,58.93
2017-11-22T10:19:21.487Z,58.70
2017-11-22T10:21:48.520Z,59.02
2017-11-22T10:24:14.946Z,58.72
2017-11-22T10:26:41.588Z,59.01
2017-11-22T10:29:08.236Z,59.67
2017-11-22T10:31:34.866Z,59.33
2017-11-22T10:34:01.514Z,58.33
2017-11-22T10:36:28.049Z,58.94
2017-11-22T10:38:55.092Z,58.27
2017-11-22T10:41:21.737Z,58.91
2017-11-22T10:43:48.277Z,58.38
2017-11-22T10:46:14.704Z,58.62
2017-11-22T10:48:41.343Z,58.25
2017-11-22T10:51:07.775Z,57.99
2017-11-22T10:53:34.210Z,57.27
2017-11-22T10:56:00.952Z,57.59
2017-11-22T10:58:27.660Z,57.96
2017-11-22T11:00:54.203Z,57.10
2017-11-22T11:03:21.698Z,57.06
2017-11-22T11:05:48.314Z,57.92
2017-11-22T11:08:15.399Z,57.85
2017-11-22T11:10:42.427Z,57.05
2017-11-22T11:13:08.972Z,56.86
2017-11-22T11:15:35.435Z,57.20
2017-11-22T11:18:02.252Z,57.26
2017-11-22T11:20:29.128Z,56.52
2017-11-22T11:22:56.237Z,57.39
2017-11-22T11:25:22.672Z,56.97
2017-11-22T11:27:49.628Z,56.82
2017-11-22T11:30:16.136Z,56.95
2017-11-22T11:32:42.599Z,57.68
2017-11-22T11:35:09.947Z,57.91
2017-11-22T11:37:36.691Z,57.66
2017-11-22T11:40:03.461Z,57.65
2017-11-22T11:42:30.684Z,57.97
2017-11-22T11:44:57.528Z,58.10
2017-11-22T11:47:24.465Z,58.14
2017-11-22T11:49:51.533Z,58.76
2017-11-22T11:52:18.071Z,58.67
2017-11-22T11:54:44.497Z,58.45
2017-11-22T11:57:11.350Z,58.61
2017-11-22T11:59:37.776Z,57.90
2017-11-22T12:02:04.231Z,56.94
2017-11-22T12:04:30.951Z,57.51
2017-11-22T12:06:57.386Z,56.71
2017-11-22T12:09:23.933Z,56.41
2017-11-22T12:11:50.868Z,56.60
2017-11-22T12:14:17.304Z,56.61
2017-11-22T12:16:43.746Z,56.64
2017-11-22T12:19:10.275Z,56.99
2017-11-22T12:21:37.333Z,57.21
2017-11-22T12:24:04.390Z,56.71
2017-11-22T12:26:30.808Z,56.92
2017-11-22T12:28:57.551Z,57.34
2017-11-22T12:31:23.993Z,56.38
2017-11-22T12:33:50.726Z,56.57
2017-11-22T12:36:17.677Z,57.18
2017-11-22T12:38:44.311Z,57.08
2017-11-22T12:41:10.852Z,57.63
2017-11-22T12:43:37.491Z,56.66
2017-11-22T12:46:03.923Z,57.58
2017-11-22T12:48:30.471Z,58.30
2017-11-22T12:50:57.212Z,58.18
2017-11-22T12:53:24.149Z,58.40
2017-11-22T12:55:50.583Z,58.08
2017-11-22T12:58:17.018Z,58.92
2017-11-22T13:00:43.660Z,58.60
2017-11-22T13:03:10.297Z,58.19
2017-11-22T13:05:36.731Z,58.58
2017-11-22T13:08:03.099Z,58.77
2017-11-22T13:10:29.609Z,59.02
2017-11-22T13:12:56.556Z,59.29
2017-11-22T13:15:22.981Z,59.29
2017-11-22T13:17:50.049Z,58.67
2017-11-22T13:20:17.294Z,58.55
2017-11-22T13:22:43.791Z,58.69
2017-11-22T13:25:11.040Z,59.01
2017-11-22T13:27:37.513Z,59.02
2017-11-22T13:30:04.047Z,58.92
2017-11-22T13:32:30.490Z,59.40
2017-11-22T13:34:57.020Z,59.03
2017-11-22T13:37:23.454Z,59.03
2017-11-22T13:39:50.000Z,59.29
2017-11-22T13:42:16.428Z,59.19
2017-11-22T13:44:43.003Z,59.14
2017-11-22T13:47:09.398Z,59.09
2017-11-22T13:49:35.942Z,59.41
2017-11-22T13:52:02.310Z,59.55
2017-11-22T13:54:29.217Z,59.90
2017-11-22T13:56:55.648Z,59.91
2017-11-22T13:59:22.203Z,60.04
2017-11-22T14:01:49.242Z,60.41
2017-11-22T14:04:16.291Z,60.65
2017-11-22T14:06:42.827Z,60.53
2017-11-22T14:09:09.766Z,60.25
2017-11-22T14:11:36.206Z,60.34
2017-11-22T14:14:02.737Z,60.56
2017-11-22T14:16:29.692Z,60.52
2017-11-22T14:18:56.229Z,60.95
2017-11-22T14:21:22.664Z,61.05
2017-11-22T14:23:49.510Z,61.38
2017-11-22T14:26:16.148Z,61.67
2017-11-22T14:28:42.676Z,61.83
2017-11-22T14:31:09.630Z,62.22
2017-11-22T14:33:36.171Z,62.54
2017-11-22T14:36:02.707Z,62.98
2017-11-22T14:38:29.449Z,62.94
2017-11-22T14:40:55.984Z,62.91
2017-11-22T14:43:22.411Z,63.17
2017-11-22T14:45:50.288Z,63.51
2017-11-22T14:48:16.825Z,63.52
2017-11-22T14:50:43.324Z,63.87
2017-11-22T14:53:10.197Z,63.76
2017-11-22T14:55:36.742Z,63.74
2017-11-22T14:58:03.281Z,63.88
2017-11-22T15:00:30.117Z,64.02
2017-11-22T15:02:56.549Z,64.19
2017-11-22T15:05:23.023Z,64.40
2017-11-22T15:07:49.727Z,64.31
2017-11-22T15:10:17.268Z,64.28
2017-11-22T15:12:43.926Z,64.03
2017-11-22T15:15:11.189Z,64.17
2017-11-22T15:17:37.616Z,64.50
2017-11-22T15:20:04.162Z,65.40
2017-11-22T15:22:30.594Z,65.97
2017-11-22T15:24:56.955Z,66.26
2017-11-22T15:27:23.353Z,66.56
2017-11-22T15:29:50.001Z,67.00
2017-11-22T15:32:16.400Z,67.19
2017-11-22T15:34:42.871Z,67.36
2017-11-22T15:37:09.308Z,67.40
2017-11-22T15:39:35.651Z,67.52
2017-11-22T15:42:02.064Z,67.76
2017-11-22T15:44:28.683Z,67.73
2017-11-22T15:46:55.141Z,67.52
2017-11-22T15:49:21.573Z,68.00
2017-11-22T15:51:48.211Z,68.46
2017-11-22T15:54:14.656Z,68.54
2017-11-22T15:56:41.081Z,68.54
2017-11-22T15:59:07.518Z,68.58
2017-11-22T16:01:33.953Z,68.94
2017-11-22T16:04:00.386Z,69.12
2017-11-22T16:06:26.825Z,69.37
2017-11-22T16:08:53.254Z,69.52
2017-11-22T16:11:19.698Z,69.76
2017-11-22T16:13:46.132Z,70.14
2017-11-22T16:16:12.560Z,70.32
2017-11-22T16:18:38.995Z,70.48
2017-11-22T16:21:05.430Z,70.88
2017-11-22T16:23:31.863Z,71.05
2017-11-22T16:25:58.307Z,71.00
2017-11-22T16:28:24.736Z,71.18
2017-11-22T16:30:51.167Z,71.65
2017-11-22T16:33:17.615Z,71.70
2017-11-22T16:35:44.148Z,71.76
2017-11-22T16:38:10.581Z,71.79
2017-11-22T16:40:36.980Z,71.72
2017-11-22T16:43:03.442Z,71.76
2017-11-22T16:45:29.876Z,71.99
2017-11-22T16:47:56.311Z,71.96
2017-11-22T16:50:22.742Z,71.87
2017-11-22T16:52:49.186Z,71.90
2017-11-22T16:55:15.622Z,71.91
2017-11-22T16:57:42.166Z,72.19
2017-11-22T17:00:08.577Z,72.12
2017-11-22T17:02:34.955Z,72.24
2017-11-22T17:05:02.173Z,72.69
2017-11-22T17:07:28.607Z,72.93
2017-11-22T17:09:54.974Z,73.44
2017-11-22T17:12:21.409Z,73.50
2017-11-22T17:14:47.911Z,73.57
2017-11-22T17:17:14.357Z,73.56
2017-11-22T17:19:40.794Z,73.66
2017-11-22T17:22:07.931Z,73.20
2017-11-22T17:24:34.374Z,72.66
2017-11-22T17:27:00.801Z,72.75
2017-11-22T17:29:27.179Z,72.79
2017-11-22T17:31:53.669Z,73.17
2017-11-22T17:34:20.113Z,72.98
2017-11-22T17:36:46.541Z,73.18
2017-11-22T17:39:13.792Z,73.20
2017-11-22T17:41:40.228Z,73.14
2017-11-22T17:44:06.670Z,72.80
2017-11-22T17:46:33.105Z,72.44
2017-11-22T17:48:59.540Z,72.44
2017-11-22T17:51:25.965Z,72.47
2017-11-22T17:53:52.409Z,72.43
2017-11-22T17:56:19.551Z,72.69
2017-11-22T17:58:46.096Z,73.31
2017-11-22T18:01:12.531Z,73.61
2017-11-22T18:03:38.965Z,73.76
2017-11-22T18:06:05.393Z,73.80
2017-11-22T18:08:31.836Z,73.93
2017-11-22T18:10:58.257Z,73.97
2017-11-22T18:13:25.422Z,73.95
2017-11-22T18:15:51.848Z,73.93
2017-11-22T18:18:18.385Z,74.01
2017-11-22T18:20:44.824Z,74.06
2017-11-22T18:23:11.261Z,74.20
2017-11-22T18:25:37.588Z,74.51
2017-11-22T18:28:04.127Z,74.46
2017-11-22T18:30:31.276Z,74.56
2017-11-22T18:32:57.605Z,74.64
2017-11-22T18:35:24.050Z,74.71
2017-11-22T18:37:50.505Z,74.81
2017-11-22T18:40:17.021Z,74.87
2017-11-22T18:42:43.448Z,75.08
2017-11-22T18:45:09.891Z,75.09
2017-11-22T18:47:37.135Z,74.81
2017-11-22T18:50:03.571Z,74.67
2017-11-22T18:52:30.005Z,74.63
2017-11-22T18:54:56.440Z,74.98
2017-11-22T18:57:22.874Z,74.83
2017-11-22T18:59:49.320Z,75.24
2017-11-22T19:02:15.974Z,75.25
2017-11-22T19:04:42.940Z,75.81
2017-11-22T19:07:09.432Z,76.05
2017-11-22T19:09:35.875Z,76.38
2017-11-22T19:12:02.608Z,76.42
2017-11-22T19:14:29.768Z,76.58
2017-11-22T19:16:56.966Z,76.85
2017-11-22T19:19:24.069Z,76.98
2017-11-22T19:21:51.222Z,76.95
2017-11-22T19:24:18.367Z,76.97
2017-11-22T19:26:45.527Z,77.12
2017-11-22T19:29:12.464Z,77.20
2017-11-22T19:31:39.315Z,77.45
2017-11-22T19:34:05.751Z,77.45
2017-11-22T19:36:32.186Z,77.56
2017-11-22T19:38:58.611Z,77.69
2017-11-22T19:41:25.025Z,77.93
2017-11-22T19:43:51.482Z,78.10
2017-11-22T19:46:18.495Z,77.82
2017-11-22T19:48:45.376Z,77.94
2017-11-22T19:51:12.495Z,77.91
2017-11-22T19:53:39.583Z,78.03
2017-11-22T19:56:06.570Z,78.03
2017-11-22T19:58:33.477Z,78.20
2017-11-22T20:01:00.321Z,78.18
2017-11-22T20:03:26.748Z,78.19
2017-11-22T20:05:53.191Z,78.36
2017-11-22T20:08:19.617Z,78.43
2017-11-22T20:10:46.050Z,78.38
2017-11-22T20:13:13.313Z,78.12
2017-11-22T20:15:39.738Z,77.80
2017-11-22T20:18:06.176Z,77.52
2017-11-22T20:20:32.618Z,77.55
2017-11-22T20:22:59.052Z,77.69
2017-11-22T20:25:25.486Z,78.03
2017-11-22T20:27:51.920Z,77.44
2017-11-22T20:30:19.064Z,77.28
2017-11-22T20:32:45.497Z,77.50
2017-11-22T20:35:11.933Z,77.90
2017-11-22T20:37:38.370Z,78.10
2017-11-22T20:40:04.809Z,78.30
2017-11-22T20:42:31.247Z,78.33
2017-11-22T20:44:57.672Z,78.31
2017-11-22T20:47:24.935Z,78.27
2017-11-22T20:49:51.361Z,78.27
2017-11-22T20:52:17.796Z,78.24
2017-11-22T20:54:44.231Z,78.03
2017-11-22T20:57:10.672Z,77.97
2017-11-22T20:59:37.100Z,78.30
2017-11-22T21:02:03.532Z,78.54
2017-11-22T21:04:30.692Z,78.61
2017-11-22T21:06:57.127Z,78.78
2017-11-22T21:09:23.665Z,78.99
2017-11-22T21:11:50.094Z,79.17
2017-11-22T21:14:16.525Z,79.38
2017-11-22T21:16:42.970Z,79.62
2017-11-22T21:19:09.351Z,79.74
2017-11-22T21:21:36.545Z,79.67
2017-11-22T21:24:02.916Z,79.63
2017-11-22T21:26:29.279Z,79.65
2017-11-22T21:28:55.747Z,80.19
2017-11-22T21:31:22.183Z,80.51
2017-11-22T21:33:48.626Z,80.62
2017-11-22T21:36:15.052Z,80.60
2017-11-22T21:38:42.212Z,80.70
2017-11-22T21:41:08.640Z,80.67
2017-11-22T21:43:35.073Z,80.54
2017-11-22T21:46:01.510Z,80.09
2017-11-22T21:48:28.053Z,79.70
2017-11-22T21:50:54.505Z,79.85
2017-11-22T21:53:20.929Z,80.27
2017-11-22T21:55:48.177Z,80.48
2017-11-22T21:58:14.612Z,80.59
2017-11-22T22:00:41.037Z,80.96
2017-11-22T22:03:07.480Z,81.32
2017-11-22T22:05:33.907Z,81.37
2017-11-22T22:08:00.351Z,81.18
2017-11-22T22:10:26.776Z,80.94
2017-11-22T22:12:54.033Z,81.01
2017-11-22T22:15:20.464Z,80.83
2017-11-22T22:17:46.898Z,80.53
2017-11-22T22:20:13.332Z,80.54
2017-11-22T22:22:39.771Z,80.74
2017-11-22T22:25:06.312Z,80.79
2017-11-22T22:27:32.853Z,80.71
2017-11-22T22:29:59.890Z,80.42
2017-11-22T22:32:26.324Z,80.28
2017-11-22T22:34:52.759Z,80.35
2017-11-22T22:37:19.193Z,80.40
2017-11-22T22:39:45.525Z,80.27
2017-11-22T22:42:11.961Z,80.42
2017-11-22T22:44:38.394Z,80.75
2017-11-22T22:47:05.546Z,81.13
2017-11-22T22:49:32.064Z,81.22
2017-11-22T22:51:58.517Z,81.10
2017-11-22T22:54:24.887Z,80.87
2017-11-22T22:56:51.215Z,80.63
2017-11-22T22:59:17.554Z,80.36
2017-11-22T23:01:43.949Z,80.23
2017-11-22T23:04:11.099Z,80.57
2017-11-22T23:06:37.536Z,80.81
2017-11-22T23:09:03.971Z,80.98
2017-11-22T23:11:30.404Z,80.99
2017-11-22T23:13:56.840Z,81.13
2017-11-22T23:16:23.273Z,81.40
2017-11-22T23:18:49.708Z,81.36
2017-11-22T23:21:16.860Z,81.37
2017-11-22T23:23:43.294Z,81.08
2017-11-22T23:26:09.729Z,80.92
2017-11-22T23:28:36.163Z,80.72
2017-11-22T23:31:02.599Z,80.59
2017-11-22T23:33:29.033Z,80.51
2017-11-22T23:35:55.468Z,80.48
2017-11-22T23:38:22.703Z,80.24
2017-11-22T23:40:49.157Z,80.34
2017-11-22T23:43:15.589Z,80.33
2017-11-22T23:45:42.026Z,80.15
2017-11-22T23:48:08.467Z,79.89
2017-11-22T23:50:34.894Z,79.96
2017-11-22T23:53:01.331Z,80.06
2017-11-22T23:55:28.480Z,80.13
2017-11-22T23:57:54.848Z,80.09
